sensor_id;sensor_type;location;lat;lon;timestamp;pressure;altitude;pressure_sealevel;temperature;humidity
40920;BME280;26652;50.280;19.026;2023-04-01T00:01:59;96587.00;;;9.75;83.01
40920;BME280;26652;50.280;19.026;2023-04-01T00:04:11;96586.44;;;9.73;82.88
40920;BME280;26652;50.280;19.026;2023-04-01T00:06:26;96583.59;;;9.81;83.19
40920;BME280;26652;50.280;19.026;2023-04-01T00:08:42;96581.38;;;9.85;83.25
40920;BME280;26652;50.280;19.026;2023-04-01T00:10:56;96583.69;;;9.87;83.30
40920;BME280;26652;50.280;19.026;2023-04-01T00:13:05;96583.47;;;9.76;83.27
40920;BME280;26652;50.280;19.026;2023-04-01T00:15:17;96578.28;;;9.83;83.43
40920;BME280;26652;50.280;19.026;2023-04-01T00:17:27;96574.09;;;9.89;83.11
40920;BME280;26652;50.280;19.026;2023-04-01T00:19:56;96578.06;;;9.84;83.24
40920;BME280;26652;50.280;19.026;2023-04-01T00:22:04;96574.97;;;9.82;83.58
40920;BME280;26652;50.280;19.026;2023-04-01T00:24:24;96569.22;;;9.87;83.89
40920;BME280;26652;50.280;19.026;2023-04-01T00:26:32;96560.81;;;9.75;83.44
40920;BME280;26652;50.280;19.026;2023-04-01T00:28:57;96577.91;;;9.68;84.51
40920;BME280;26652;50.280;19.026;2023-04-01T00:31:08;96576.03;;;9.63;84.53
40920;BME280;26652;50.280;19.026;2023-04-01T00:33:20;96580.53;;;9.61;85.14
40920;BME280;26652;50.280;19.026;2023-04-01T00:35:39;96578.22;;;9.60;85.75
40920;BME280;26652;50.280;19.026;2023-04-01T00:37:51;96582.78;;;9.69;85.55
40920;BME280;26652;50.280;19.026;2023-04-01T00:40:00;96586.66;;;9.72;85.06
40920;BME280;26652;50.280;19.026;2023-04-01T00:42:14;96575.94;;;9.70;85.49
40920;BME280;26652;50.280;19.026;2023-04-01T00:44:25;96580.69;;;9.78;85.24
40920;BME280;26652;50.280;19.026;2023-04-01T00:46:38;96571.06;;;9.68;85.39
40920;BME280;26652;50.280;19.026;2023-04-01T00:48:54;96569.44;;;9.74;85.60
40920;BME280;26652;50.280;19.026;2023-04-01T00:51:06;96573.50;;;9.75;85.16
40920;BME280;26652;50.280;19.026;2023-04-01T00:53:14;96579.81;;;9.72;85.59
40920;BME280;26652;50.280;19.026;2023-04-01T00:55:28;96577.81;;;9.74;85.64
40920;BME280;26652;50.280;19.026;2023-04-01T00:57:40;96586.09;;;9.70;85.70
40920;BME280;26652;50.280;19.026;2023-04-01T00:59:56;96579.66;;;9.56;86.11
40920;BME280;26652;50.280;19.026;2023-04-01T01:02:04;96587.91;;;9.51;86.99
40920;BME280;26652;50.280;19.026;2023-04-01T01:04:30;96590.97;;;9.41;87.59
40920;BME280;26652;50.280;19.026;2023-04-01T01:09:30;96579.59;;;9.44;87.81
40920;BME280;26652;50.280;19.026;2023-04-01T01:12:13;96590.88;;;9.48;87.89
40920;BME280;26652;50.280;19.026;2023-04-01T01:14:55;96580.81;;;9.41;88.08
40920;BME280;26652;50.280;19.026;2023-04-01T01:17:26;96578.06;;;9.43;88.09
40920;BME280;26652;50.280;19.026;2023-04-01T01:20:23;96579.03;;;9.30;89.15
40920;BME280;26652;50.280;19.026;2023-04-01T01:23:06;96569.31;;;9.27;89.27
40920;BME280;26652;50.280;19.026;2023-04-01T01:26:04;96574.47;;;9.21;89.88
40920;BME280;26652;50.280;19.026;2023-04-01T01:33:53;96567.25;;;9.36;90.06
40920;BME280;26652;50.280;19.026;2023-04-01T01:36:12;96560.28;;;9.43;89.60
40920;BME280;26652;50.280;19.026;2023-04-01T01:38:24;96559.84;;;9.46;89.10
40920;BME280;26652;50.280;19.026;2023-04-01T01:40:35;96560.09;;;9.56;88.93
40920;BME280;26652;50.280;19.026;2023-04-01T01:42:48;96558.44;;;9.50;89.54
40920;BME280;26652;50.280;19.026;2023-04-01T01:45:01;96560.94;;;9.38;89.36
40920;BME280;26652;50.280;19.026;2023-04-01T01:47:09;96560.06;;;9.33;90.12
40920;BME280;26652;50.280;19.026;2023-04-01T01:49:22;96551.31;;;9.29;89.93
40920;BME280;26652;50.280;19.026;2023-04-01T01:51:30;96554.50;;;9.24;90.71
40920;BME280;26652;50.280;19.026;2023-04-01T01:53:42;96553.88;;;9.29;90.82
40920;BME280;26652;50.280;19.026;2023-04-01T01:55:49;96557.31;;;9.34;90.34
40920;BME280;26652;50.280;19.026;2023-04-01T01:58:14;96545.47;;;9.28;90.10
40920;BME280;26652;50.280;19.026;2023-04-01T02:00:24;96558.81;;;9.24;90.23
40920;BME280;26652;50.280;19.026;2023-04-01T02:02:35;96562.00;;;9.19;90.72
40920;BME280;26652;50.280;19.026;2023-04-01T02:04:43;96565.72;;;9.16;91.22
40920;BME280;26652;50.280;19.026;2023-04-01T02:07:04;96560.09;;;9.14;91.06
40920;BME280;26652;50.280;19.026;2023-04-01T02:09:13;96558.19;;;9.10;91.57
40920;BME280;26652;50.280;19.026;2023-04-01T02:11:36;96565.19;;;9.14;91.38
40920;BME280;26652;50.280;19.026;2023-04-01T02:14:08;96568.06;;;9.18;91.30
40920;BME280;26652;50.280;19.026;2023-04-01T02:16:24;96571.25;;;9.13;91.33
40920;BME280;26652;50.280;19.026;2023-04-01T02:18:35;96567.31;;;8.99;92.12
40920;BME280;26652;50.280;19.026;2023-04-01T02:20:48;96569.84;;;8.99;92.37
40920;BME280;26652;50.280;19.026;2023-04-01T02:22:57;96565.97;;;8.97;92.63
40920;BME280;26652;50.280;19.026;2023-04-01T02:25:16;96564.22;;;8.97;93.18
40920;BME280;26652;50.280;19.026;2023-04-01T02:27:22;96560.91;;;8.97;93.02
40920;BME280;26652;50.280;19.026;2023-04-01T02:29:39;96567.94;;;8.95;93.22
40920;BME280;26652;50.280;19.026;2023-04-01T02:31:54;96566.03;;;8.90;93.69
40920;BME280;26652;50.280;19.026;2023-04-01T02:34:03;96572.88;;;8.90;93.85
40920;BME280;26652;50.280;19.026;2023-04-01T02:36:14;96580.56;;;9.01;93.65
40920;BME280;26652;50.280;19.026;2023-04-01T02:38:24;96575.69;;;9.00;93.24
40920;BME280;26652;50.280;19.026;2023-04-01T02:40:46;96582.53;;;8.99;93.32
40920;BME280;26652;50.280;19.026;2023-04-01T02:42:55;96586.63;;;9.00;93.57
40920;BME280;26652;50.280;19.026;2023-04-01T02:45:06;96588.88;;;9.08;93.28
40920;BME280;26652;50.280;19.026;2023-04-01T02:47:20;96596.97;;;9.17;93.04
40920;BME280;26652;50.280;19.026;2023-04-01T02:49:45;96588.34;;;9.18;92.33
40920;BME280;26652;50.280;19.026;2023-04-01T02:51:57;96589.00;;;9.13;92.47
40920;BME280;26652;50.280;19.026;2023-04-01T02:54:15;96593.50;;;9.11;92.42
40920;BME280;26652;50.280;19.026;2023-04-01T02:56:29;96585.03;;;9.17;92.25
40920;BME280;26652;50.280;19.026;2023-04-01T02:58:43;96593.31;;;9.13;92.12
40920;BME280;26652;50.280;19.026;2023-04-01T03:00:57;96590.25;;;9.23;92.09
40920;BME280;26652;50.280;19.026;2023-04-01T03:03:10;96581.31;;;9.20;91.83
40920;BME280;26652;50.280;19.026;2023-04-01T03:05:24;96593.78;;;9.22;92.00
40920;BME280;26652;50.280;19.026;2023-04-01T03:07:33;96592.78;;;9.23;92.13
40920;BME280;26652;50.280;19.026;2023-04-01T03:09:46;96590.12;;;9.17;91.84
40920;BME280;26652;50.280;19.026;2023-04-01T03:11:55;96593.28;;;9.31;92.27
40920;BME280;26652;50.280;19.026;2023-04-01T03:14:09;96587.97;;;9.33;91.63
40920;BME280;26652;50.280;19.026;2023-04-01T03:16:21;96584.66;;;9.32;91.48
40920;BME280;26652;50.280;19.026;2023-04-01T03:18:49;96586.78;;;9.35;91.52
40920;BME280;26652;50.280;19.026;2023-04-01T03:21:23;96594.91;;;9.26;91.36
40920;BME280;26652;50.280;19.026;2023-04-01T03:23:40;96593.63;;;9.35;91.86
40920;BME280;26652;50.280;19.026;2023-04-01T03:25:53;96586.31;;;9.38;90.69
40920;BME280;26652;50.280;19.026;2023-04-01T03:28:05;96594.28;;;9.42;90.54
40920;BME280;26652;50.280;19.026;2023-04-01T03:30:13;96595.59;;;9.33;90.98
40920;BME280;26652;50.280;19.026;2023-04-01T03:32:29;96588.31;;;9.36;91.01
40920;BME280;26652;50.280;19.026;2023-04-01T03:34:42;96592.72;;;9.41;90.85
40920;BME280;26652;50.280;19.026;2023-04-01T03:36:57;96598.81;;;9.40;90.80
40920;BME280;26652;50.280;19.026;2023-04-01T03:39:03;96593.84;;;9.33;91.15
40920;BME280;26652;50.280;19.026;2023-04-01T03:41:18;96599.34;;;9.30;91.29
40920;BME280;26652;50.280;19.026;2023-04-01T03:43:28;96599.00;;;9.38;91.23
40920;BME280;26652;50.280;19.026;2023-04-01T03:45:49;96598.91;;;9.33;91.25
40920;BME280;26652;50.280;19.026;2023-04-01T03:48:07;96594.16;;;9.37;91.48
40920;BME280;26652;50.280;19.026;2023-04-01T03:50:21;96593.28;;;9.31;91.45
40920;BME280;26652;50.280;19.026;2023-04-01T03:52:30;96591.38;;;9.27;91.61
40920;BME280;26652;50.280;19.026;2023-04-01T03:55:02;96603.03;;;9.46;91.16
40920;BME280;26652;50.280;19.026;2023-04-01T03:57:11;96601.34;;;9.40;90.43
40920;BME280;26652;50.280;19.026;2023-04-01T03:59:31;96591.50;;;9.32;91.21
40920;BME280;26652;50.280;19.026;2023-04-01T04:01:39;96595.28;;;9.41;91.37
40920;BME280;26652;50.280;19.026;2023-04-01T04:03:52;96597.81;;;9.41;91.51
40920;BME280;26652;50.280;19.026;2023-04-01T04:06:02;96598.69;;;9.35;91.59
40920;BME280;26652;50.280;19.026;2023-04-01T04:08:17;96601.09;;;9.30;91.68
40920;BME280;26652;50.280;19.026;2023-04-01T04:10:33;96601.66;;;9.32;91.84
40920;BME280;26652;50.280;19.026;2023-04-01T04:12:46;96597.47;;;9.37;91.97
40920;BME280;26652;50.280;19.026;2023-04-01T04:14:54;96600.34;;;9.41;91.69
40920;BME280;26652;50.280;19.026;2023-04-01T04:17:13;96603.00;;;9.34;92.07
40920;BME280;26652;50.280;19.026;2023-04-01T04:19:26;96598.81;;;9.40;91.52
40920;BME280;26652;50.280;19.026;2023-04-01T04:21:38;96593.94;;;9.38;91.95
40920;BME280;26652;50.280;19.026;2023-04-01T04:23:52;96595.81;;;9.31;92.08
40920;BME280;26652;50.280;19.026;2023-04-01T04:26:11;96600.13;;;9.31;92.36
40920;BME280;26652;50.280;19.026;2023-04-01T04:28:17;96590.03;;;9.24;92.46
40920;BME280;26652;50.280;19.026;2023-04-01T04:30:31;96596.81;;;9.42;92.71
40920;BME280;26652;50.280;19.026;2023-04-01T04:32:49;96597.38;;;9.44;92.01
40920;BME280;26652;50.280;19.026;2023-04-01T04:35:02;96594.72;;;9.39;92.40
40920;BME280;26652;50.280;19.026;2023-04-01T04:37:10;96595.31;;;9.52;91.73
40920;BME280;26652;50.280;19.026;2023-04-01T04:39:32;96604.00;;;9.45;91.82
40920;BME280;26652;50.280;19.026;2023-04-01T04:41:40;96592.00;;;9.52;91.95
40920;BME280;26652;50.280;19.026;2023-04-01T04:43:57;96584.41;;;9.64;91.62
40920;BME280;26652;50.280;19.026;2023-04-01T04:46:11;96590.16;;;9.59;91.53
40920;BME280;26652;50.280;19.026;2023-04-01T04:48:27;96596.91;;;9.65;90.98
40920;BME280;26652;50.280;19.026;2023-04-01T04:50:35;96590.06;;;9.66;90.57
40920;BME280;26652;50.280;19.026;2023-04-01T04:52:50;96595.13;;;9.66;90.83
40920;BME280;26652;50.280;19.026;2023-04-01T04:55:16;96596.38;;;9.75;90.29
40920;BME280;26652;50.280;19.026;2023-04-01T04:57:45;96586.84;;;9.59;90.25
40920;BME280;26652;50.280;19.026;2023-04-01T04:59:55;96599.91;;;9.74;90.76
40920;BME280;26652;50.280;19.026;2023-04-01T05:02:07;96602.13;;;9.82;90.45
40920;BME280;26652;50.280;19.026;2023-04-01T05:04:16;96610.34;;;9.96;89.71
40920;BME280;26652;50.280;19.026;2023-04-01T05:06:26;96600.94;;;9.84;89.35
40920;BME280;26652;50.280;19.026;2023-04-01T05:08:34;96602.59;;;9.91;89.80
40920;BME280;26652;50.280;19.026;2023-04-01T05:10:49;96602.47;;;9.86;89.77
40920;BME280;26652;50.280;19.026;2023-04-01T05:12:58;96608.03;;;9.94;89.95
40920;BME280;26652;50.280;19.026;2023-04-01T05:15:09;96613.78;;;10.01;89.40
40920;BME280;26652;50.280;19.026;2023-04-01T05:17:16;96603.63;;;10.01;88.58
40920;BME280;26652;50.280;19.026;2023-04-01T05:19:57;96606.84;;;10.08;88.51
40920;BME280;26652;50.280;19.026;2023-04-01T05:22:07;96606.72;;;10.03;88.81
40920;BME280;26652;50.280;19.026;2023-04-01T05:24:26;96594.13;;;10.08;88.73
40920;BME280;26652;50.280;19.026;2023-04-01T05:26:38;96608.16;;;10.11;88.51
40920;BME280;26652;50.280;19.026;2023-04-01T05:28:55;96608.97;;;10.23;87.80
40920;BME280;26652;50.280;19.026;2023-04-01T05:31:12;96605.56;;;10.29;88.05
40920;BME280;26652;50.280;19.026;2023-04-01T05:33:33;96614.41;;;10.27;86.76
40920;BME280;26652;50.280;19.026;2023-04-01T05:35:51;96610.75;;;10.23;87.33
40920;BME280;26652;50.280;19.026;2023-04-01T05:38:11;96613.41;;;10.28;87.83
40920;BME280;26652;50.280;19.026;2023-04-01T05:40:22;96624.69;;;10.32;86.57
40920;BME280;26652;50.280;19.026;2023-04-01T05:42:47;96613.41;;;10.28;86.94
40920;BME280;26652;50.280;19.026;2023-04-01T05:44:58;96607.28;;;10.17;87.36
40920;BME280;26652;50.280;19.026;2023-04-01T05:47:13;96620.00;;;10.17;87.60
40920;BME280;26652;50.280;19.026;2023-04-01T05:49:24;96616.06;;;10.21;87.33
40920;BME280;26652;50.280;19.026;2023-04-01T05:51:38;96614.34;;;10.15;87.83
40920;BME280;26652;50.280;19.026;2023-04-01T05:53:55;96611.19;;;10.31;87.10
40920;BME280;26652;50.280;19.026;2023-04-01T05:56:17;96617.16;;;10.37;86.40
40920;BME280;26652;50.280;19.026;2023-04-01T05:58:54;96611.19;;;10.20;86.32
40920;BME280;26652;50.280;19.026;2023-04-01T06:01:11;96621.12;;;10.21;87.04
40920;BME280;26652;50.280;19.026;2023-04-01T06:03:22;96623.09;;;10.19;87.10
40920;BME280;26652;50.280;19.026;2023-04-01T06:05:43;96621.00;;;10.16;87.01
40920;BME280;26652;50.280;19.026;2023-04-01T06:08:00;96625.78;;;10.24;87.22
40920;BME280;26652;50.280;19.026;2023-04-01T06:10:16;96626.00;;;10.23;87.01
40920;BME280;26652;50.280;19.026;2023-04-01T06:25:04;96641.09;;;10.06;88.05
40920;BME280;26652;50.280;19.026;2023-04-01T06:32:55;96643.19;;;10.09;88.61
40920;BME280;26652;50.280;19.026;2023-04-01T06:36:02;96640.81;;;10.26;87.80
40920;BME280;26652;50.280;19.026;2023-04-01T06:48:10;96645.34;;;10.82;86.15
40920;BME280;26652;50.280;19.026;2023-04-01T06:50:48;96652.53;;;10.73;85.85
40920;BME280;26652;50.280;19.026;2023-04-01T06:55:39;96642.19;;;11.15;85.20
40920;BME280;26652;50.280;19.026;2023-04-01T06:57:49;96647.59;;;11.30;82.72
40920;BME280;26652;50.280;19.026;2023-04-01T07:00:04;96634.94;;;11.35;84.49
40920;BME280;26652;50.280;19.026;2023-04-01T07:02:43;96648.13;;;11.61;82.41
40920;BME280;26652;50.280;19.026;2023-04-01T07:04:59;96656.47;;;11.44;81.79
40920;BME280;26652;50.280;19.026;2023-04-01T07:07:16;96656.25;;;11.46;82.39
40920;BME280;26652;50.280;19.026;2023-04-01T07:09:33;96655.56;;;11.34;82.53
40920;BME280;26652;50.280;19.026;2023-04-01T07:11:41;96650.84;;;11.14;84.05
40920;BME280;26652;50.280;19.026;2023-04-01T07:14:20;96647.19;;;11.10;84.43
40920;BME280;26652;50.280;19.026;2023-04-01T07:16:36;96651.47;;;11.21;85.64
40920;BME280;26652;50.280;19.026;2023-04-01T07:19:18;96660.06;;;11.43;84.83
40920;BME280;26652;50.280;19.026;2023-04-01T07:21:52;96655.31;;;11.35;84.21
40920;BME280;26652;50.280;19.026;2023-04-01T07:24:21;96668.88;;;11.53;85.24
40920;BME280;26652;50.280;19.026;2023-04-01T07:26:33;96667.53;;;11.50;84.67
40920;BME280;26652;50.280;19.026;2023-04-01T07:28:46;96660.53;;;11.29;85.48
40920;BME280;26652;50.280;19.026;2023-04-01T07:31:15;96659.75;;;11.40;85.63
40920;BME280;26652;50.280;19.026;2023-04-01T07:33:46;96663.06;;;11.40;85.28
40920;BME280;26652;50.280;19.026;2023-04-01T07:36:04;96664.44;;;11.48;86.65
40920;BME280;26652;50.280;19.026;2023-04-01T07:43:52;96671.28;;;11.59;84.07
40920;BME280;26652;50.280;19.026;2023-04-01T07:51:45;96681.19;;;10.80;89.75
40920;BME280;26652;50.280;19.026;2023-04-01T07:54:11;96680.41;;;10.68;91.60
40920;BME280;26652;50.280;19.026;2023-04-01T07:56:31;96680.97;;;10.82;91.71
40920;BME280;26652;50.280;19.026;2023-04-01T07:59:08;96677.75;;;10.87;91.81
40920;BME280;26652;50.280;19.026;2023-04-01T08:04:27;96681.94;;;11.04;91.67
40920;BME280;26652;50.280;19.026;2023-04-01T08:06:42;96681.50;;;11.47;91.25
40920;BME280;26652;50.280;19.026;2023-04-01T08:09:21;96681.78;;;11.63;90.05
40920;BME280;26652;50.280;19.026;2023-04-01T08:11:48;96677.56;;;11.68;88.60
40920;BME280;26652;50.280;19.026;2023-04-01T08:14:47;96687.75;;;11.68;87.97
40920;BME280;26652;50.280;19.026;2023-04-01T08:22:04;96692.25;;;11.50;89.08
40920;BME280;26652;50.280;19.026;2023-04-01T08:24:43;96693.69;;;11.45;88.42
40920;BME280;26652;50.280;19.026;2023-04-01T08:26:54;96687.59;;;11.87;88.17
40920;BME280;26652;50.280;19.026;2023-04-01T08:29:26;96697.41;;;11.66;87.38
40920;BME280;26652;50.280;19.026;2023-04-01T08:31:43;96692.22;;;11.61;86.78
40920;BME280;26652;50.280;19.026;2023-04-01T08:34:05;96696.19;;;11.40;87.95
40920;BME280;26652;50.280;19.026;2023-04-01T08:36:22;96697.50;;;11.43;90.32
40920;BME280;26652;50.280;19.026;2023-04-01T08:38:51;96701.41;;;11.62;88.41
40920;BME280;26652;50.280;19.026;2023-04-01T08:43:51;96697.59;;;11.76;89.12
40920;BME280;26652;50.280;19.026;2023-04-01T08:49:04;96705.72;;;12.02;88.46
40920;BME280;26652;50.280;19.026;2023-04-01T08:53:59;96692.31;;;12.40;85.52
40920;BME280;26652;50.280;19.026;2023-04-01T08:57:01;96700.87;;;12.67;83.68
40920;BME280;26652;50.280;19.026;2023-04-01T08:59:56;96706.81;;;12.73;83.02
40920;BME280;26652;50.280;19.026;2023-04-01T09:13:31;96700.03;;;11.71;91.57
40920;BME280;26652;50.280;19.026;2023-04-01T09:21:36;96697.34;;;11.90;91.10
40920;BME280;26652;50.280;19.026;2023-04-01T09:24:21;96700.09;;;12.17;92.54
40920;BME280;26652;50.280;19.026;2023-04-01T09:29:50;96705.97;;;12.51;87.36
40920;BME280;26652;50.280;19.026;2023-04-01T09:37:34;96703.81;;;12.09;91.80
40920;BME280;26652;50.280;19.026;2023-04-01T09:40:14;96704.12;;;12.13;92.11
40920;BME280;26652;50.280;19.026;2023-04-01T09:42:45;96705.94;;;12.00;94.73
40920;BME280;26652;50.280;19.026;2023-04-01T09:45:20;96712.16;;;12.21;93.46
40920;BME280;26652;50.280;19.026;2023-04-01T09:50:34;96716.75;;;12.36;93.66
40920;BME280;26652;50.280;19.026;2023-04-01T09:52:45;96703.50;;;12.56;95.51
40920;BME280;26652;50.280;19.026;2023-04-01T10:08:55;96708.37;;;12.57;87.95
40920;BME280;26652;50.280;19.026;2023-04-01T10:22:04;96701.84;;;13.17;85.59
40920;BME280;26652;50.280;19.026;2023-04-01T10:24:37;96699.59;;;13.03;84.41
40920;BME280;26652;50.280;19.026;2023-04-01T10:30:07;96717.28;;;12.21;86.58
40920;BME280;26652;50.280;19.026;2023-04-01T10:47:39;96709.41;;;13.12;89.09
40920;BME280;26652;50.280;19.026;2023-04-01T10:55:05;96723.75;;;12.96;86.29
40920;BME280;26652;50.280;19.026;2023-04-01T11:08:06;96719.06;;;13.26;82.01
40920;BME280;26652;50.280;19.026;2023-04-01T11:15:31;96709.28;;;14.16;80.37
40920;BME280;26652;50.280;19.026;2023-04-01T11:23:22;96714.53;;;15.00;74.87
40920;BME280;26652;50.280;19.026;2023-04-01T11:26:00;96711.44;;;14.61;73.21
40920;BME280;26652;50.280;19.026;2023-04-01T11:31:18;96711.50;;;14.34;74.51
40920;BME280;26652;50.280;19.026;2023-04-01T11:39:24;96707.56;;;14.90;71.73
40920;BME280;26652;50.280;19.026;2023-04-01T11:42:09;96723.41;;;15.29;70.25
40920;BME280;26652;50.280;19.026;2023-04-01T11:44:27;96706.19;;;15.25;69.39
40920;BME280;26652;50.280;19.026;2023-04-01T11:55:05;96707.38;;;14.65;69.53
40920;BME280;26652;50.280;19.026;2023-04-01T12:03:10;96708.00;;;13.64;72.69
40920;BME280;26652;50.280;19.026;2023-04-01T12:05:54;96712.59;;;13.62;73.93
40920;BME280;26652;50.280;19.026;2023-04-01T12:10:51;96719.31;;;13.47;74.86
40920;BME280;26652;50.280;19.026;2023-04-01T12:16:00;96718.78;;;13.23;77.55
40920;BME280;26652;50.280;19.026;2023-04-01T12:18:42;96718.25;;;13.04;79.32
40920;BME280;26652;50.280;19.026;2023-04-01T12:21:24;96722.34;;;13.22;80.25
40920;BME280;26652;50.280;19.026;2023-04-01T12:26:35;96723.53;;;12.81;81.10
40920;BME280;26652;50.280;19.026;2023-04-01T12:29:07;96725.84;;;12.99;81.16
40920;BME280;26652;50.280;19.026;2023-04-01T12:31:31;96723.03;;;13.17;81.18
40920;BME280;26652;50.280;19.026;2023-04-01T12:36:43;96717.38;;;13.32;77.98
40920;BME280;26652;50.280;19.026;2023-04-01T12:44:37;96725.50;;;13.12;77.78
40920;BME280;26652;50.280;19.026;2023-04-01T12:50:07;96718.44;;;13.36;75.40
40920;BME280;26652;50.280;19.026;2023-04-01T12:58:01;96736.94;;;13.92;71.85
40920;BME280;26652;50.280;19.026;2023-04-01T13:03:12;96724.37;;;13.90;71.40
40920;BME280;26652;50.280;19.026;2023-04-01T13:08:05;96734.19;;;13.50;71.58
40920;BME280;26652;50.280;19.026;2023-04-01T13:13:00;96734.13;;;13.45;71.44
40920;BME280;26652;50.280;19.026;2023-04-01T13:18:14;96740.41;;;13.37;70.75
40920;BME280;26652;50.280;19.026;2023-04-01T13:23:12;96743.03;;;13.64;71.34
40920;BME280;26652;50.280;19.026;2023-04-01T13:28:20;96749.69;;;13.65;71.23
40920;BME280;26652;50.280;19.026;2023-04-01T13:33:04;96752.94;;;13.82;71.80
40920;BME280;26652;50.280;19.026;2023-04-01T13:35:30;96749.78;;;13.97;70.76
40920;BME280;26652;50.280;19.026;2023-04-01T13:38:10;96745.69;;;13.96;71.16
40920;BME280;26652;50.280;19.026;2023-04-01T13:43:02;96751.66;;;14.06;70.18
40920;BME280;26652;50.280;19.026;2023-04-01T13:45:29;96742.53;;;13.89;71.79
40920;BME280;26652;50.280;19.026;2023-04-01T13:51:01;96772.97;;;13.25;70.81
40920;BME280;26652;50.280;19.026;2023-04-01T13:53:52;96777.91;;;12.81;72.23
40920;BME280;26652;50.280;19.026;2023-04-01T13:56:29;96782.81;;;12.21;81.87
40920;BME280;26652;50.280;19.026;2023-04-01T14:01:55;96772.34;;;12.05;90.71
40920;BME280;26652;50.280;19.026;2023-04-01T14:07:14;96775.16;;;12.21;93.40
40920;BME280;26652;50.280;19.026;2023-04-01T14:12:47;96770.31;;;12.36;92.16
40920;BME280;26652;50.280;19.026;2023-04-01T14:15:16;96770.66;;;12.73;92.16
40920;BME280;26652;50.280;19.026;2023-04-01T14:18:02;96779.38;;;12.77;93.52
40920;BME280;26652;50.280;19.026;2023-04-01T14:23:36;96784.41;;;13.05;91.16
40920;BME280;26652;50.280;19.026;2023-04-01T14:33:53;96781.00;;;13.33;89.05
40920;BME280;26652;50.280;19.026;2023-04-01T14:44:40;96812.72;;;12.70;84.88
40920;BME280;26652;50.280;19.026;2023-04-01T14:49:47;96795.84;;;12.36;87.44
40920;BME280;26652;50.280;19.026;2023-04-01T14:52:10;96798.69;;;12.39;89.73
40920;BME280;26652;50.280;19.026;2023-04-01T14:54:40;96793.91;;;12.43;87.53
40920;BME280;26652;50.280;19.026;2023-04-01T14:57:33;96792.44;;;12.47;88.74
40920;BME280;26652;50.280;19.026;2023-04-01T14:59:29;96791.75;;;12.52;89.29
40920;BME280;26652;50.280;19.026;2023-04-01T15:01:57;96797.31;;;12.65;88.74
40920;BME280;26652;50.280;19.026;2023-04-01T15:07:20;96808.47;;;12.59;87.72
40920;BME280;26652;50.280;19.026;2023-04-01T15:17:19;96810.78;;;12.44;87.95
40920;BME280;26652;50.280;19.026;2023-04-01T15:19:42;96805.25;;;12.35;88.94
40920;BME280;26652;50.280;19.026;2023-04-01T15:25:05;96810.31;;;12.19;91.34
40920;BME280;26652;50.280;19.026;2023-04-01T15:27:37;96814.41;;;12.20;91.95
40920;BME280;26652;50.280;19.026;2023-04-01T15:37:29;96822.66;;;12.10;92.44
40920;BME280;26652;50.280;19.026;2023-04-01T15:40:20;96828.94;;;12.19;93.36
40920;BME280;26652;50.280;19.026;2023-04-01T15:42:48;96827.41;;;12.18;91.83
40920;BME280;26652;50.280;19.026;2023-04-01T15:47:33;96838.59;;;12.17;91.75
40920;BME280;26652;50.280;19.026;2023-04-01T15:49:50;96835.59;;;12.20;90.92
40920;BME280;26652;50.280;19.026;2023-04-01T15:52:16;96833.38;;;12.24;91.00
40920;BME280;26652;50.280;19.026;2023-04-01T15:54:37;96837.06;;;12.16;92.37
40920;BME280;26652;50.280;19.026;2023-04-01T15:57:35;96837.72;;;12.11;90.46
40920;BME280;26652;50.280;19.026;2023-04-01T16:08:09;96852.28;;;11.76;91.81
40920;BME280;26652;50.280;19.026;2023-04-01T16:10:53;96856.72;;;11.57;91.53
40920;BME280;26652;50.280;19.026;2023-04-01T16:16:19;96849.84;;;11.69;91.90
40920;BME280;26652;50.280;19.026;2023-04-01T16:19:17;96854.19;;;11.57;91.12
40920;BME280;26652;50.280;19.026;2023-04-01T16:21:50;96855.06;;;11.63;92.63
40920;BME280;26652;50.280;19.026;2023-04-01T16:24:13;96853.97;;;11.59;93.91
40920;BME280;26652;50.280;19.026;2023-04-01T16:26:33;96859.38;;;11.62;94.85
40920;BME280;26652;50.280;19.026;2023-04-01T16:29:24;96854.63;;;11.54;93.46
40920;BME280;26652;50.280;19.026;2023-04-01T16:31:48;96855.72;;;11.46;95.21
40920;BME280;26652;50.280;19.026;2023-04-01T16:34:19;96852.56;;;11.39;95.14
40920;BME280;26652;50.280;19.026;2023-04-01T16:37:07;96854.88;;;11.41;97.36
40920;BME280;26652;50.280;19.026;2023-04-01T16:39:27;96850.88;;;11.33;96.49
40920;BME280;26652;50.280;19.026;2023-04-01T16:41:36;96862.94;;;11.50;95.96
40920;BME280;26652;50.280;19.026;2023-04-01T16:44:07;96864.25;;;11.52;95.72
40920;BME280;26652;50.280;19.026;2023-04-01T16:46:29;96873.78;;;11.57;95.51
40920;BME280;26652;50.280;19.026;2023-04-01T16:49:13;96884.75;;;11.57;94.81
40920;BME280;26652;50.280;19.026;2023-04-01T16:51:23;96889.97;;;11.62;95.45
40920;BME280;26652;50.280;19.026;2023-04-01T16:54:14;96888.19;;;11.63;94.85
40920;BME280;26652;50.280;19.026;2023-04-01T16:56:24;96889.19;;;11.62;94.45
40920;BME280;26652;50.280;19.026;2023-04-01T16:58:56;96897.94;;;11.54;95.38
40920;BME280;26652;50.280;19.026;2023-04-01T17:01:24;96904.47;;;11.50;95.40
40920;BME280;26652;50.280;19.026;2023-04-01T17:03:45;96912.44;;;11.54;95.26
40920;BME280;26652;50.280;19.026;2023-04-01T17:08:33;96917.31;;;11.55;94.33
40920;BME280;26652;50.280;19.026;2023-04-01T17:11:00;96911.34;;;11.50;94.47
40920;BME280;26652;50.280;19.026;2023-04-01T17:13:40;96920.31;;;11.64;94.55
40920;BME280;26652;50.280;19.026;2023-04-01T17:18:58;96927.06;;;11.46;94.69
40920;BME280;26652;50.280;19.026;2023-04-01T17:23:50;96929.63;;;11.46;93.86
40920;BME280;26652;50.280;19.026;2023-04-01T17:28:59;96939.94;;;11.52;93.54
40920;BME280;26652;50.280;19.026;2023-04-01T17:31:33;96939.03;;;11.46;94.39
40920;BME280;26652;50.280;19.026;2023-04-01T17:34:09;96950.00;;;11.46;94.33
40920;BME280;26652;50.280;19.026;2023-04-01T17:36:44;96953.09;;;11.48;94.46